KCHO

Charlottesville-Albemarle Airport

Charlottesville, Virginia, USA
KCHO 210525Z 2106/2206 14004KT P6SM VCSH BKN008 FM210800 VRB03KT 5SM BR VCSH OVC003 FM211300 VRB03KT P6SM VCSH OVC008 FM211500 VRB03KT P6SM VCTS BKN020CB FM211700 17006KT P6SM VCTS OVC030CB FM212100 18007KT P6SM VCSH OVC035
Issued Valid From Valid To
Aug-21 @ 05:25 UTC
(12 hours ago)
Aug-21 @ 06:00 UTC
(12 hours ago)
Aug-22 @ 06:00 UTC
(in 12 hours)
Expired Click to View Aug-21 @ 06:00 to Aug-21 @ 08:00
KCHO 210525Z 2106/2206 14004KT P6SM VCSH BKN008
Wind Visibility Clouds
140° at 4 knots Greater than 6 miles
  • Broken at 800' AGL
Expired Click to View Aug-21 @ 08:00 to Aug-21 @ 13:00
FM210800 VRB03KT 5SM BR VCSH OVC003
Wind Visibility Clouds Conditions
Variable at 3 knots 5 miles
  • Overcast at 300' AGL
  • Mist
Expired Click to View Aug-21 @ 13:00 to Aug-21 @ 15:00
FM211300 VRB03KT P6SM VCSH OVC008
Wind Visibility Clouds
Variable at 3 knots Greater than 6 miles
  • Overcast at 800' AGL
Expired Click to View Aug-21 @ 15:00 to Aug-21 @ 17:00
FM211500 VRB03KT P6SM VCTS BKN020CB
Wind Visibility Clouds Conditions
Variable at 3 knots Greater than 6 miles
  • Broken at 2,000' AGL
  • Area Thunderstorm
From Aug-21 @ 17:00 to Aug-21 @ 21:00
FM211700 17006KT P6SM VCTS OVC030CB
Wind Visibility Clouds Conditions
170° at 6 knots Greater than 6 miles
  • Overcast at 3,000' AGL
  • Area Thunderstorm
From Aug-21 @ 21:00 to Aug-22 @ 06:00
FM212100 18007KT P6SM VCSH OVC035
Wind Visibility Clouds
180° at 7 knots Greater than 6 miles
  • Overcast at 3,500' AGL
KCHO 210525Z 2106/2206 14004KT P6SM VCSH BKN008 FM210800 VRB03KT 5SM BR VCSH OVC003 FM211300 VRB03KT P6SM VCSH OVC008 FM211500 VRB03KT P6SM VCTS BKN020CB FM211700 17006KT P6SM VCTS OVC030CB FM212100 18007KT P6SM VCSH OVC035
Issued Aug-21 @ 05:25 UTC
(12 hours ago)
Valid From Aug-21 @ 06:00 UTC
(12 hours ago)
Valid To Aug-22 @ 06:00 UTC
(in 12 hours)
Aug-21 @ 06:00 - Aug-21 @ 08:00
Wind Visibility
140° at 4 knots Greater than 6 miles
Clouds
  • Broken at 800' AGL
Aug-21 @ 08:00 - Aug-21 @ 13:00
Wind Visibility
Variable at 3 knots 5 miles
Clouds
  • Overcast at 300' AGL
Conditions
  • Mist
Aug-21 @ 13:00 - Aug-21 @ 15:00
Wind Visibility
Variable at 3 knots Greater than 6 miles
Clouds
  • Overcast at 800' AGL
Aug-21 @ 15:00 - Aug-21 @ 17:00
Wind Visibility
Variable at 3 knots Greater than 6 miles
Clouds
  • Broken at 2,000' AGL
Conditions
  • Area Thunderstorm
From Aug-21 @ 17:00 - Aug-21 @ 21:00
Wind Visibility
170° at 6 knots Greater than 6 miles
Clouds
  • Overcast at 3,000' AGL
Conditions
  • Area Thunderstorm
From Aug-21 @ 21:00 - Aug-22 @ 06:00
Wind Visibility
180° at 7 knots Greater than 6 miles
Clouds
  • Overcast at 3,500' AGL